EGHE/ISC METAR and TAF weather

Enter ICAO airport designator
Station Type Date Time Source
EGHE METAR 2019/10/15 09:20 UTC NOAA

EGHE 150920Z 28012KT 9999 FEW020 14/09 Q1005


Station Type Date Time Source
EGHE Decoded METAR 2019/10/15 09:20 UTC NOAA

Scilly, Saint Mary'S, United Kingdom (EGHE) 49-55N 006-18W 0M
Oct 15, 2019 - 05:20 AM EDT / 2019.10.15 0920 UTC
Wind: from the W (280 degrees) at 14 MPH (12 KT):0
Visibility: greater than 7 mile(s):0
Sky conditions: mostly clear
Temperature: 57 F (14 C)
Dew Point: 48 F (9 C)
Relative Humidity: 71%
Pressure (altimeter): 29.68 in. Hg (1005 hPa)
ob: EGHE 150920Z 28012KT 9999 FEW020 14/09 Q1005
cycle: 9

Station Type Date Time Source
EGHE TAF UTC NOAA

Error!

Example: see airport list